Time;durP1;ratioP1;P1;durP2;ratioP2;P2;SDS_P1;SDS_P2;PMS_P1;PMS_P2;Temp;Humidity;BMP_temperature;BMP_pressure;BME280_temperature;BME280_humidity;BME280_pressure;Samples;Min_cycle;Max_cycle;Signal;HPM_P1;HPM_P2
2022/03/25 00:01:01;;;;;;;33.97;21.67;;;7.20;94.30;;;;;;5054123;28;20197;-49
2022/03/25 00:03:30;;;;;;;32.47;20.87;;;7.10;94.30;;;;;;5053732;28;20580;-50
2022/03/25 00:06:01;;;;;;;33.57;20.93;;;7.10;94.40;;;;;;5053445;28;20211;-50
2022/03/25 00:08:30;;;;;;;31.57;21.13;;;7.10;94.40;;;;;;5054223;28;20217;-49
2022/03/25 00:10:59;;;;;;;36.70;23.47;;;7.00;94.40;;;;;;5054350;28;20682;-50
2022/03/25 00:13:27;;;;;;;36.40;22.47;;;7.00;94.30;;;;;;5053655;28;20218;-50
2022/03/25 00:15:55;;;;;;;38.37;22.47;;;7.00;94.40;;;;;;5054411;28;20219;-49
2022/03/25 00:18:23;;;;;;;38.60;22.77;;;6.90;94.30;;;;;;5053531;28;20237;-49
2022/03/25 00:20:51;;;;;;;37.53;22.83;;;6.90;94.50;;;;;;5053790;28;20258;-49
2022/03/25 00:23:21;;;;;;;36.63;22.90;;;6.80;94.60;;;;;;5053045;28;20214;-50
2022/03/25 00:25:49;;;;;;;38.53;22.70;;;6.80;94.80;;;;;;5054391;28;20205;-49
2022/03/25 00:28:17;;;;;;;39.10;22.33;;;6.80;94.70;;;;;;5053737;28;20225;-50
2022/03/25 00:30:46;;;;;;;36.30;22.77;;;6.80;94.80;;;;;;5054353;28;20270;-49
2022/03/25 00:33:15;;;;;;;36.37;22.40;;;6.80;94.80;;;;;;5038242;28;20202;-49
2022/03/25 00:35:44;;;;;;;44.27;24.03;;;6.80;95.00;;;;;;5033424;28;20212;-50
2022/03/25 00:38:12;;;;;;;37.23;22.33;;;6.70;95.00;;;;;;5033748;28;20229;-49
2022/03/25 00:40:44;;;;;;;39.13;23.37;;;6.70;95.10;;;;;;5034243;28;20208;-49
2022/03/25 00:43:12;;;;;;;39.27;23.43;;;6.80;95.30;;;;;;5033208;28;20237;-48
2022/03/25 00:45:40;;;;;;;40.67;23.27;;;6.70;95.30;;;;;;5033537;28;20569;-50
2022/03/25 00:48:09;;;;;;;41.47;22.20;;;6.70;95.20;;;;;;5033421;28;20215;-50
2022/03/25 00:50:38;;;;;;;39.70;23.73;;;6.70;95.50;;;;;;5033618;28;20204;-50
2022/03/25 00:53:11;;;;;;;40.57;24.23;;;6.70;95.30;;;;;;5033152;28;20677;-49
2022/03/25 00:55:41;;;;;;;39.80;23.53;;;6.60;95.30;;;;;;5033802;28;20221;-50
2022/03/25 00:58:09;;;;;;;41.43;24.70;;;6.60;95.50;;;;;;5039226;28;20612;-49
2022/03/25 01:00:37;;;;;;;37.43;23.73;;;6.50;95.70;;;;;;5054787;28;20206;-50
2022/03/25 01:03:06;;;;;;;34.93;23.00;;;6.40;95.80;;;;;;5057757;28;20202;-50
2022/03/25 01:05:34;;;;;;;39.00;24.23;;;6.40;96.00;;;;;;5056516;28;20220;-49
2022/03/25 01:08:03;;;;;;;38.83;24.33;;;6.30;95.80;;;;;;5055205;28;20892;-49
2022/03/25 01:10:34;;;;;;;42.60;24.90;;;6.30;96.00;;;;;;5054295;28;20218;-50
2022/03/25 01:13:04;;;;;;;41.03;24.63;;;6.30;95.90;;;;;;5052994;28;20206;-50
2022/03/25 01:15:33;;;;;;;41.87;25.00;;;6.30;96.40;;;;;;5053101;28;20260;-49
2022/03/25 01:18:01;;;;;;;39.90;23.93;;;6.20;96.10;;;;;;5052428;28;20640;-50
2022/03/25 01:20:30;;;;;;;40.30;25.07;;;6.20;96.30;;;;;;5052177;28;20256;-50
2022/03/25 01:22:58;;;;;;;38.27;25.00;;;6.10;96.50;;;;;;5052496;28;20210;-49
2022/03/25 01:25:26;;;;;;;40.07;23.90;;;6.10;96.60;;;;;;5042756;28;20203;-50
2022/03/25 01:27:55;;;;;;;40.03;25.40;;;6.10;96.70;;;;;;5053049;28;20249;-50
2022/03/25 01:30:24;;;;;;;38.87;23.73;;;6.00;96.70;;;;;;5052498;28;20619;-50
2022/03/25 01:32:53;;;;;;;40.17;24.77;;;6.00;96.80;;;;;;5052427;28;20675;-49
2022/03/25 01:35:24;;;;;;;40.07;25.03;;;6.00;96.90;;;;;;5052812;28;20232;-50
2022/03/25 01:37:52;;;;;;;41.00;25.53;;;6.00;96.90;;;;;;5052211;28;20242;-50
2022/03/25 01:40:20;;;;;;;42.93;25.23;;;6.00;96.80;;;;;;5052666;28;20587;-49
2022/03/25 01:42:49;;;;;;;42.40;25.73;;;6.00;97.10;;;;;;5052277;28;20214;-50
2022/03/25 01:45:31;;;;;;;42.97;25.33;;;6.00;97.20;;;;;;5052685;28;20202;-50
2022/03/25 01:48:00;;;;;;;39.83;26.23;;;6.00;97.20;;;;;;5052555;28;20217;-49
2022/03/25 01:50:29;;;;;;;42.93;27.33;;;5.90;97.20;;;;;;5052350;28;20885;-50
2022/03/25 01:52:57;;;;;;;42.33;26.40;;;5.80;97.20;;;;;;5052090;28;20287;-49
2022/03/25 01:55:27;;;;;;;40.17;25.80;;;5.80;97.20;;;;;;5052409;28;20220;-50
2022/03/25 01:57:58;;;;;;;42.33;27.77;;;5.80;97.30;;;;;;5052509;28;20233;-50
2022/03/25 02:00:29;;;;;;;41.93;26.43;;;5.70;97.40;;;;;;5052290;28;20224;-50
2022/03/25 02:02:59;;;;;;;48.63;27.47;;;5.60;97.40;;;;;;5052199;28;20294;-49
2022/03/25 02:05:27;;;;;;;45.70;27.27;;;5.60;97.60;;;;;;5052466;28;20209;-50
2022/03/25 02:07:56;;;;;;;46.00;27.57;;;5.60;98.00;;;;;;5052487;28;20235;-50
2022/03/25 02:10:24;;;;;;;47.07;28.10;;;5.50;98.10;;;;;;5051976;28;20206;-50
2022/03/25 02:12:52;;;;;;;42.67;26.57;;;5.60;98.10;;;;;;5051671;28;20209;-48
2022/03/25 02:15:32;;;;;;;44.37;27.97;;;5.50;98.10;;;;;;5052477;28;20227;-50
2022/03/25 02:18:05;;;;;;;45.33;28.63;;;5.50;98.10;;;;;;5051758;28;20236;-50
2022/03/25 02:20:34;;;;;;;44.90;27.53;;;5.50;98.10;;;;;;5050385;28;20255;-50
2022/03/25 02:23:04;;;;;;;50.43;29.33;;;5.40;98.00;;;;;;5051284;28;20201;-50
2022/03/25 02:25:33;;;;;;;47.50;28.77;;;5.40;98.10;;;;;;5031856;28;20254;-50
2022/03/25 02:28:04;;;;;;;51.23;29.20;;;5.40;98.40;;;;;;5031526;28;20774;-49
2022/03/25 02:30:34;;;;;;;45.37;28.77;;;5.40;98.30;;;;;;5032047;28;20229;-49
2022/03/25 02:33:04;;;;;;;46.60;29.63;;;5.30;98.40;;;;;;5031424;28;20330;-49
2022/03/25 02:35:43;;;;;;;47.40;29.17;;;5.30;98.50;;;;;;5031859;28;20213;-50
2022/03/25 02:38:15;;;;;;;51.40;29.87;;;5.20;98.50;;;;;;5031666;28;20300;-50
2022/03/25 02:40:43;;;;;;;47.70;29.27;;;5.20;98.70;;;;;;5031881;28;20203;-49
2022/03/25 02:43:12;;;;;;;50.70;30.50;;;5.20;98.60;;;;;;5031208;28;20263;-49
2022/03/25 02:45:40;;;;;;;50.10;30.43;;;5.20;98.80;;;;;;5031425;28;20210;-49
2022/03/25 02:48:10;;;;;;;47.10;28.70;;;5.20;98.80;;;;;;5030971;28;20222;-50
2022/03/25 02:50:38;;;;;;;50.53;30.87;;;5.20;98.90;;;;;;5031239;28;20213;-50
2022/03/25 02:53:07;;;;;;;48.03;30.53;;;5.20;99.20;;;;;;5030975;28;20675;-49
2022/03/25 02:55:36;;;;;;;50.77;29.60;;;5.20;99.10;;;;;;5031227;28;20263;-49
2022/03/25 02:58:05;;;;;;;50.40;29.93;;;5.20;99.30;;;;;;5031465;28;20295;-49
2022/03/25 03:00:34;;;;;;;51.70;31.40;;;5.20;99.20;;;;;;5046762;28;20735;-50
2022/03/25 03:03:03;;;;;;;53.00;31.77;;;5.20;99.40;;;;;;5050554;28;20211;-49
2022/03/25 03:05:33;;;;;;;52.90;31.67;;;5.20;99.40;;;;;;5050558;28;20218;-49
2022/03/25 03:08:01;;;;;;;51.80;31.27;;;5.10;99.40;;;;;;5050992;28;20825;-50
2022/03/25 03:10:30;;;;;;;53.10;31.77;;;5.10;99.50;;;;;;5051255;28;20278;-49
2022/03/25 03:13:00;;;;;;;48.83;29.50;;;5.10;99.50;;;;;;5050207;28;20214;-49
2022/03/25 03:15:28;;;;;;;51.73;31.07;;;5.10;99.60;;;;;;5051094;28;20205;-49
2022/03/25 03:17:56;;;;;;;51.67;32.07;;;5.10;99.70;;;;;;5050899;28;20749;-49
2022/03/25 03:20:25;;;;;;;54.10;32.13;;;5.00;99.70;;;;;;5050090;28;20205;-49
2022/03/25 03:22:55;;;;;;;56.83;33.07;;;5.10;99.90;;;;;;5050904;28;20205;-49
2022/03/25 03:25:24;;;;;;;55.00;32.57;;;5.10;99.90;;;;;;5050679;28;20209;-49
2022/03/25 03:27:52;;;;;;;49.13;30.40;;;5.10;99.70;;;;;;5051141;28;20262;-49
2022/03/25 03:30:22;;;;;;;52.57;32.67;;;5.10;99.70;;;;;;5050333;28;20213;-50
2022/03/25 03:32:54;;;;;;;48.43;30.73;;;5.00;99.90;;;;;;5050735;28;20198;-50
2022/03/25 03:35:23;;;;;;;51.07;32.30;;;4.90;99.90;;;;;;5050634;28;20294;-49
2022/03/25 03:37:51;;;;;;;55.07;31.83;;;4.90;99.90;;;;;;5050953;28;20282;-49
2022/03/25 03:40:19;;;;;;;52.43;31.67;;;4.90;99.90;;;;;;5050666;28;20205;-49
2022/03/25 03:42:48;;;;;;;51.27;31.47;;;4.90;99.90;;;;;;5050478;28;20266;-49
2022/03/25 03:45:16;;;;;;;54.20;32.13;;;4.80;99.90;;;;;;5050593;28;20259;-48
2022/03/25 03:47:47;;;;;;;53.10;33.10;;;4.90;99.90;;;;;;5050658;28;20223;-49
2022/03/25 03:50:17;;;;;;;56.20;33.57;;;4.90;99.90;;;;;;5050207;28;20208;-50
2022/03/25 03:52:45;;;;;;;50.70;32.83;;;4.90;99.90;;;;;;5050027;28;20203;-49
2022/03/25 03:55:14;;;;;;;52.83;32.40;;;4.90;99.90;;;;;;5050576;28;20259;-49
2022/03/25 03:57:42;;;;;;;54.83;32.43;;;4.90;99.90;;;;;;5050670;28;20655;-50
2022/03/25 04:00:13;;;;;;;51.90;31.37;;;4.80;99.90;;;;;;5052366;28;20321;-49
2022/03/25 04:02:44;;;;;;;56.37;32.63;;;4.80;99.90;;;;;;5055460;28;20190;-50
2022/03/25 04:05:14;;;;;;;49.87;30.23;;;4.80;99.90;;;;;;5054794;28;20204;-50
2022/03/25 04:07:43;;;;;;;51.73;32.37;;;4.80;99.90;;;;;;5054308;28;20308;-50
2022/03/25 04:10:12;;;;;;;56.97;32.53;;;4.80;99.90;;;;;;5053321;28;20196;-50
2022/03/25 04:12:40;;;;;;;54.93;32.40;;;4.80;99.90;;;;;;5053653;28;20204;-50
2022/03/25 04:15:10;;;;;;;56.00;32.73;;;4.80;99.90;;;;;;5053661;28;20212;-50
2022/03/25 04:17:39;;;;;;;55.07;32.17;;;4.70;99.90;;;;;;5054215;28;20238;-50
2022/03/25 04:20:08;;;;;;;53.03;32.20;;;4.70;99.90;;;;;;5052768;28;20326;-50
2022/03/25 04:22:38;;;;;;;57.63;31.13;;;4.70;99.90;;;;;;5053253;28;20206;-50
2022/03/25 04:25:07;;;;;;;51.20;31.70;;;4.70;99.90;;;;;;5053679;28;20242;-50
2022/03/25 04:27:46;;;;;;;51.00;30.37;;;4.70;99.90;;;;;;5053586;28;20227;-50
2022/03/25 04:30:18;;;;;;;54.13;32.70;;;4.70;99.90;;;;;;5053622;28;20257;-50
2022/03/25 04:32:46;;;;;;;51.93;29.77;;;4.60;99.90;;;;;;5053371;28;20271;-49
2022/03/25 04:35:14;;;;;;;48.27;30.83;;;4.60;99.90;;;;;;5053543;28;20202;-49
2022/03/25 04:37:43;;;;;;;50.33;31.20;;;4.60;99.90;;;;;;5053487;28;20225;-49
2022/03/25 04:40:13;;;;;;;49.10;29.30;;;4.50;99.90;;;;;;5053649;28;20232;-49
2022/03/25 04:42:42;;;;;;;57.70;30.27;;;4.50;99.90;;;;;;5052510;28;20208;-50
2022/03/25 04:45:10;;;;;;;53.93;30.37;;;4.50;99.90;;;;;;5053365;28;20669;-50
2022/03/25 04:47:38;;;;;;;46.73;29.73;;;4.50;99.90;;;;;;5053774;28;20228;-49
2022/03/25 04:50:07;;;;;;;48.43;29.50;;;4.50;99.90;;;;;;5053272;28;20212;-49
2022/03/25 04:52:35;;;;;;;49.93;29.60;;;4.50;99.90;;;;;;5053195;28;20273;-49
2022/03/25 04:55:06;;;;;;;47.33;27.47;;;4.50;99.90;;;;;;5053161;28;20206;-50
2022/03/25 04:57:34;;;;;;;46.23;29.97;;;4.50;99.90;;;;;;5053326;28;20314;-49
2022/03/25 05:00:02;;;;;;;50.17;28.40;;;4.50;99.90;;;;;;5052678;28;20216;-50
2022/03/25 05:02:30;;;;;;;49.73;30.03;;;4.50;99.90;;;;;;5052767;28;20207;-49
2022/03/25 05:04:58;;;;;;;49.47;29.20;;;4.50;99.90;;;;;;5052989;28;20206;-49
2022/03/25 05:07:26;;;;;;;52.83;29.50;;;4.50;99.90;;;;;;5053217;28;20276;-50
2022/03/25 05:09:57;;;;;;;47.33;29.17;;;4.50;99.90;;;;;;5053328;28;20250;-50
2022/03/25 05:12:27;;;;;;;51.03;29.67;;;4.50;99.90;;;;;;5051793;28;20232;-49
2022/03/25 05:14:55;;;;;;;45.90;28.23;;;4.50;99.90;;;;;;5052717;28;20559;-49
2022/03/25 05:17:23;;;;;;;49.37;28.43;;;4.50;99.90;;;;;;5052387;28;20278;-49
2022/03/25 05:19:51;;;;;;;50.20;29.10;;;4.50;99.90;;;;;;5052041;28;20625;-50
2022/03/25 05:22:19;;;;;;;47.67;29.30;;;4.50;99.90;;;;;;5052208;28;20255;-50
2022/03/25 05:24:47;;;;;;;48.80;29.77;;;4.50;99.90;;;;;;5053019;28;20629;-49
2022/03/25 05:27:16;;;;;;;50.23;29.80;;;4.60;99.90;;;;;;5052933;28;20240;-50
2022/03/25 05:29:46;;;;;;;45.03;27.13;;;4.60;99.90;;;;;;5052707;28;20207;-49
2022/03/25 05:32:14;;;;;;;51.40;29.13;;;4.70;99.90;;;;;;5052455;28;20220;-50
2022/03/25 05:34:42;;;;;;;51.50;29.57;;;4.70;99.90;;;;;;5045873;28;20217;-49
2022/03/25 05:37:10;;;;;;;50.00;29.33;;;4.70;99.90;;;;;;5033005;28;20195;-49
2022/03/25 05:39:38;;;;;;;52.30;30.80;;;4.80;99.90;;;;;;5044212;28;20704;-50
2022/03/25 05:42:07;;;;;;;50.93;30.20;;;4.80;99.90;;;;;;5052134;28;20673;-50
2022/03/25 05:44:35;;;;;;;47.63;30.07;;;4.90;99.90;;;;;;5052221;28;20233;-50
2022/03/25 05:47:05;;;;;;;51.03;31.17;;;4.90;99.90;;;;;;5052332;28;20205;-49
2022/03/25 05:49:34;;;;;;;53.53;29.70;;;4.90;99.90;;;;;;5052308;28;20205;-50
2022/03/25 05:52:02;;;;;;;56.03;31.00;;;5.00;99.90;;;;;;5051687;28;20212;-49
2022/03/25 05:54:30;;;;;;;51.83;30.83;;;5.00;99.90;;;;;;5052061;28;20216;-50
2022/03/25 05:56:58;;;;;;;47.93;29.67;;;5.10;99.90;;;;;;5051893;28;20270;-50
2022/03/25 05:59:26;;;;;;;54.73;31.13;;;5.20;99.90;;;;;;5050523;28;20581;-49
2022/03/25 06:01:54;;;;;;;57.20;30.83;;;5.30;99.90;;;;;;5045556;28;20217;-50
2022/03/25 06:04:24;;;;;;;50.70;30.23;;;5.40;99.90;;;;;;5034422;28;20210;-50
2022/03/25 06:06:52;;;;;;;54.33;30.70;;;5.40;99.90;;;;;;5045647;28;20274;-49
2022/03/25 06:09:20;;;;;;;45.83;29.93;;;5.60;99.90;;;;;;5048419;28;20216;-49
2022/03/25 06:11:49;;;;;;;50.50;29.27;;;5.60;99.90;;;;;;5051348;28;20260;-49
2022/03/25 06:14:17;;;;;;;50.17;30.73;;;5.60;99.90;;;;;;5051633;28;20194;-49
2022/03/25 06:16:46;;;;;;;51.37;30.30;;;5.80;99.90;;;;;;5052284;28;20260;-50
2022/03/25 06:19:14;;;;;;;52.20;28.87;;;5.90;99.90;;;;;;5051350;28;20233;-49
2022/03/25 06:21:44;;;;;;;48.80;29.27;;;6.20;99.90;;;;;;5034857;28;20254;-50
2022/03/25 06:24:12;;;;;;;47.33;27.83;;;6.40;99.90;;;;;;5031415;28;20207;-50
2022/03/25 06:26:40;;;;;;;49.80;29.43;;;6.50;99.90;;;;;;5031832;28;20259;-50
2022/03/25 06:29:09;;;;;;;47.37;28.37;;;6.70;99.90;;;;;;5031584;28;20223;-50
2022/03/25 06:31:38;;;;;;;51.13;29.23;;;6.80;99.90;;;;;;5031155;28;20218;-50
2022/03/25 06:34:06;;;;;;;52.10;30.60;;;6.90;99.90;;;;;;5031049;28;20216;-50
2022/03/25 06:36:34;;;;;;;50.07;30.70;;;7.00;99.90;;;;;;5031374;28;20248;-50
2022/03/25 06:39:04;;;;;;;51.17;29.93;;;7.10;99.90;;;;;;5034975;28;20294;-50
2022/03/25 06:41:32;;;;;;;48.40;31.40;;;7.20;99.90;;;;;;5040480;28;20230;-49
2022/03/25 06:44:01;;;;;;;54.63;32.43;;;7.20;99.90;;;;;;5030677;28;20233;-50
2022/03/25 06:46:29;;;;;;;48.20;31.40;;;7.10;99.90;;;;;;5030908;28;20698;-50
2022/03/25 06:48:57;;;;;;;45.50;31.43;;;7.10;99.90;;;;;;5030721;28;20254;-51
2022/03/25 06:51:26;;;;;;;46.33;31.40;;;7.30;99.90;;;;;;5031164;28;20205;-49
2022/03/25 06:53:55;;;;;;;46.63;31.33;;;7.50;99.90;;;;;;5046257;28;20202;-50
2022/03/25 06:56:25;;;;;;;45.97;31.30;;;7.90;99.90;;;;;;5050643;28;20239;-51
2022/03/25 06:58:53;;;;;;;48.37;31.67;;;8.30;99.90;;;;;;5053087;28;20283;-50
2022/03/25 07:01:22;;;;;;;47.57;31.50;;;8.60;99.90;;;;;;5054285;28;20229;-50
2022/03/25 07:03:51;;;;;;;45.37;30.43;;;8.90;99.90;;;;;;5051370;28;20297;-50
2022/03/25 07:06:23;;;;;;;43.60;30.50;;;9.10;99.90;;;;;;5050460;28;20205;-51
2022/03/25 07:08:56;;;;;;;43.73;29.67;;;9.40;99.90;;;;;;5050707;28;20297;-51
2022/03/25 07:11:25;;;;;;;42.73;29.47;;;9.60;99.90;;;;;;5050646;28;20198;-51
2022/03/25 07:13:54;;;;;;;44.40;29.40;;;9.90;99.90;;;;;;5049842;28;20210;-50
2022/03/25 07:16:22;;;;;;;45.73;29.97;;;10.00;99.90;;;;;;5050884;28;20197;-51
2022/03/25 07:18:50;;;;;;;41.00;29.20;;;10.10;99.90;;;;;;5050451;28;20241;-51
2022/03/25 07:21:18;;;;;;;41.87;28.63;;;10.30;99.90;;;;;;5049970;28;20225;-51
2022/03/25 07:23:46;;;;;;;41.73;29.50;;;10.50;99.90;;;;;;5050181;28;20513;-50
2022/03/25 07:26:15;;;;;;;44.87;29.83;;;10.70;99.90;;;;;;5050525;28;20205;-51
2022/03/25 07:28:44;;;;;;;43.47;28.70;;;10.90;99.90;;;;;;5050798;28;20275;-50
2022/03/25 07:31:12;;;;;;;42.10;28.37;;;11.00;99.90;;;;;;5050450;28;20210;-50
2022/03/25 07:33:40;;;;;;;52.23;29.13;;;11.20;99.90;;;;;;5049338;28;20704;-51
2022/03/25 07:36:08;;;;;;;51.00;30.73;;;11.40;99.90;;;;;;5053997;28;20263;-51
2022/03/25 07:38:37;;;;;;;46.73;29.97;;;11.50;99.90;;;;;;5054427;28;20655;-51
2022/03/25 07:41:05;;;;;;;43.20;29.43;;;11.80;99.90;;;;;;5054687;28;20256;-51
2022/03/25 07:43:33;;;;;;;42.80;29.07;;;12.10;99.90;;;;;;5053754;28;20259;-50
2022/03/25 07:46:03;;;;;;;41.07;29.43;;;12.30;99.90;;;;;;5054374;28;20625;-51
2022/03/25 07:48:31;;;;;;;48.73;30.37;;;12.50;98.10;;;;;;5054731;28;20290;-51
2022/03/25 07:50:59;;;;;;;41.67;29.37;;;12.80;96.40;;;;;;5053659;28;20206;-51
2022/03/25 07:53:28;;;;;;;42.97;29.20;;;12.90;94.60;;;;;;5047964;28;20240;-51
2022/03/25 07:55:56;;;;;;;41.80;28.10;;;13.10;95.90;;;;;;5042718;28;20218;-51
2022/03/25 07:58:24;;;;;;;42.67;28.75;;;13.10;94.60;;;;;;5038968;28;20764;-51
2022/03/25 08:00:54;;;;;;;44.47;29.25;;;13.30;93.20;;;;;;5045825;28;20773;-51
2022/03/25 08:03:24;;;;;;;44.90;29.17;;;13.20;92.20;;;;;;5033699;28;20647;-51
2022/03/25 08:05:52;;;;;;;45.77;29.77;;;13.10;92.00;;;;;;5033988;28;20234;-51
2022/03/25 08:08:20;;;;;;;42.07;28.07;;;13.10;92.10;;;;;;5038663;28;20249;-50
2022/03/25 08:10:54;;;;;;;43.63;28.03;;;12.90;91.40;;;;;;5052842;28;20247;-50
2022/03/25 08:13:23;;;;;;;52.67;30.17;;;12.90;91.40;;;;;;5053562;28;20204;-50
2022/03/25 08:15:51;;;;;;;46.20;28.23;;;12.90;90.70;;;;;;5053832;28;20213;-50
2022/03/25 08:18:19;;;;;;;46.13;28.80;;;12.90;91.20;;;;;;5054274;28;20264;-51
2022/03/25 08:20:49;;;;;;;43.77;28.70;;;13.00;91.10;;;;;;5053755;28;20229;-50
2022/03/25 08:28:47;;;;;;;40.10;26.40;;;13.10;91.00;;;;;;5054009;28;20225;-51
2022/03/25 08:31:35;;;;;;;47.50;26.97;;;13.20;89.90;;;;;;5055098;28;20301;-50
2022/03/25 08:34:04;;;;;;;40.93;27.33;;;13.30;90.00;;;;;;5054406;28;20216;-51
2022/03/25 08:36:34;;;;;;;43.90;26.80;;;13.30;89.90;;;;;;5055629;28;20283;-50
2022/03/25 08:39:02;;;;;;;46.00;24.43;;;13.30;89.10;;;;;;5054545;28;20221;-50
2022/03/25 08:41:30;;;;;;;44.37;26.83;;;13.50;87.90;;;;;;5054805;28;20218;-51
2022/03/25 08:43:58;;;;;;;42.43;25.17;;;13.40;87.00;;;;;;5052172;28;20205;-50
2022/03/25 08:46:26;;;;;;;39.40;25.73;;;13.40;86.10;;;;;;5042989;28;20214;-51
2022/03/25 08:48:54;;;;;;;39.20;26.53;;;13.40;86.90;;;;;;5033238;28;20237;-51
2022/03/25 08:51:22;;;;;;;44.23;24.73;;;13.40;85.70;;;;;;5033467;28;20260;-50
2022/03/25 08:53:52;;;;;;;42.07;25.73;;;13.50;87.30;;;;;;5032758;28;20206;-50
2022/03/25 08:56:21;;;;;;;40.20;25.57;;;13.50;85.80;;;;;;5033161;28;20781;-50
2022/03/25 08:58:49;;;;;;;40.37;23.93;;;13.60;85.30;;;;;;5041335;28;20229;-50
2022/03/25 09:01:17;;;;;;;37.67;23.80;;;13.50;84.50;;;;;;5053398;28;20225;-50
2022/03/25 09:03:46;;;;;;;35.50;23.70;;;13.60;86.40;;;;;;5052273;28;20206;-50
2022/03/25 09:06:14;;;;;;;37.33;24.17;;;13.70;85.80;;;;;;5052553;28;20214;-50
2022/03/25 09:08:42;;;;;;;41.77;24.50;;;13.80;84.50;;;;;;5052326;28;20229;-49
2022/03/25 09:11:12;;;;;;;36.83;24.27;;;13.80;85.30;;;;;;5047105;28;20210;-50
2022/03/25 09:13:41;;;;;;;39.97;23.03;;;13.80;83.30;;;;;;5032228;28;20290;-50
2022/03/25 09:16:11;;;;;;;41.13;24.63;;;13.80;83.70;;;;;;5033870;28;20206;-48
2022/03/25 09:18:40;;;;;;;36.50;23.47;;;13.80;82.60;;;;;;5033402;28;20229;-50
2022/03/25 09:21:08;;;;;;;36.83;23.57;;;13.80;83.10;;;;;;5032857;28;20206;-50
2022/03/25 09:23:36;;;;;;;38.93;23.67;;;13.90;82.60;;;;;;5032608;28;20256;-50
2022/03/25 09:26:04;;;;;;;38.53;22.73;;;13.90;82.30;;;;;;5033442;28;20264;-50
2022/03/25 09:28:34;;;;;;;37.20;24.43;;;14.00;82.20;;;;;;5032853;28;20230;-50
2022/03/25 09:31:02;;;;;;;37.73;23.77;;;13.90;80.40;;;;;;5043363;28;20264;-51
2022/03/25 09:33:30;;;;;;;34.33;21.97;;;13.90;79.80;;;;;;5052490;28;20214;-50
2022/03/25 09:35:58;;;;;;;39.83;23.33;;;13.90;79.40;;;;;;5053053;28;20202;-50
2022/03/25 09:38:27;;;;;;;35.00;22.13;;;13.90;79.90;;;;;;5052987;28;20226;-50
2022/03/25 09:41:03;;;;;;;35.73;22.40;;;14.00;79.50;;;;;;5052716;28;20205;-50
2022/03/25 09:43:31;;;;;;;41.47;25.17;;;13.90;78.10;;;;;;5052311;28;20226;-49
2022/03/25 09:46:01;;;;;;;37.17;24.10;;;14.00;78.40;;;;;;5052280;28;20205;-49
2022/03/25 09:48:29;;;;;;;36.83;23.70;;;14.00;81.80;;;;;;5052675;28;20225;-50
2022/03/25 09:51:17;;;;;;;40.60;25.87;;;14.10;80.20;;;;;;5052266;28;20201;-50
2022/03/25 09:53:48;;;;;;;38.77;26.50;;;14.10;79.10;;;;;;5051737;28;20213;-50
2022/03/25 09:56:16;;;;;;;37.80;26.40;;;14.10;81.00;;;;;;5053870;28;20209;-49
2022/03/25 09:58:44;;;;;;;41.77;26.00;;;14.20;79.30;;;;;;5052877;28;20298;-51
2022/03/25 10:01:14;;;;;;;41.40;26.13;;;14.30;80.50;;;;;;5052368;28;20209;-50
2022/03/25 10:03:43;;;;;;;36.40;25.10;;;14.30;79.60;;;;;;5051032;28;20232;-51
2022/03/25 10:06:14;;;;;;;39.30;25.43;;;14.30;80.10;;;;;;5052236;28;20232;-50
2022/03/25 10:08:45;;;;;;;36.63;24.27;;;14.30;79.50;;;;;;5051553;28;20320;-50
2022/03/25 10:11:24;;;;;;;41.23;24.53;;;14.30;78.60;;;;;;5044414;28;20217;-50
2022/03/25 10:14:14;;;;;;;34.63;25.67;;;14.40;78.40;;;;;;5030986;28;20258;-50
2022/03/25 10:16:46;;;;;;;39.03;25.73;;;14.40;80.00;;;;;;5031932;28;20269;-51
2022/03/25 10:19:18;;;;;;;42.07;27.17;;;14.40;79.80;;;;;;5030827;28;20230;-50
2022/03/25 10:21:55;;;;;;;44.13;28.43;;;14.40;78.30;;;;;;5031390;28;20191;-51
2022/03/25 10:24:40;;;;;;;43.63;26.37;;;14.40;78.10;;;;;;5031478;28;20201;-51
2022/03/25 10:27:15;;;;;;;41.97;25.07;;;14.40;77.70;;;;;;5031420;28;20241;-50
2022/03/25 10:29:46;;;;;;;46.47;30.80;;;14.30;77.60;;;;;;5030979;28;20214;-49
2022/03/25 10:32:18;;;;;;;45.60;28.53;;;14.40;77.90;;;;;;5031150;28;20242;-51
2022/03/25 10:35:01;;;;;;;39.37;27.60;;;14.40;78.10;;;;;;5029643;28;20210;-51
2022/03/25 10:37:31;;;;;;;43.20;28.73;;;14.40;77.50;;;;;;5048994;28;20222;-50
2022/03/25 10:39:59;;;;;;;41.47;27.10;;;14.40;79.20;;;;;;5051066;28;20626;-51
2022/03/25 10:42:27;;;;;;;43.17;27.17;;;14.50;78.10;;;;;;5051673;28;20844;-51
2022/03/25 10:44:59;;;;;;;41.27;26.20;;;14.50;78.00;;;;;;5051996;28;20209;-50
2022/03/25 10:47:29;;;;;;;42.37;26.47;;;14.60;77.30;;;;;;5052055;28;20225;-49
2022/03/25 10:50:13;;;;;;;41.77;26.60;;;14.70;76.90;;;;;;5051433;28;20552;-50
2022/03/25 10:52:42;;;;;;;39.20;25.27;;;14.70;77.20;;;;;;5050844;28;20209;-50
2022/03/25 10:55:22;;;;;;;46.03;26.77;;;14.50;76.10;;;;;;5051999;28;20205;-50
2022/03/25 10:57:54;;;;;;;39.03;25.67;;;14.60;76.30;;;;;;5051168;28;20236;-51
2022/03/25 11:00:23;;;;;;;40.03;25.23;;;14.70;76.20;;;;;;5050410;28;20201;-51
2022/03/25 11:02:53;;;;;;;39.30;25.90;;;14.70;77.60;;;;;;5050594;28;20233;-50
2022/03/25 11:05:22;;;;;;;41.50;26.30;;;14.80;75.40;;;;;;5050455;28;20267;-49
2022/03/25 11:07:51;;;;;;;38.37;25.67;;;14.80;76.90;;;;;;5042426;28;20217;-50
2022/03/25 11:10:20;;;;;;;35.07;22.77;;;14.80;75.50;;;;;;5050296;28;20210;-50
2022/03/25 11:12:50;;;;;;;38.83;25.17;;;14.90;74.40;;;;;;5050341;28;20224;-50
2022/03/25 11:15:22;;;;;;;37.00;23.93;;;14.90;73.70;;;;;;5051061;28;20217;-51
2022/03/25 11:17:50;;;;;;;41.00;23.67;;;14.90;73.60;;;;;;5036831;28;20226;-50
2022/03/25 11:20:21;;;;;;;36.58;22.63;;;14.90;72.30;;;;;;5030787;28;20210;-50
2022/03/25 11:23:02;;;;;;;36.87;24.07;;;14.80;72.90;;;;;;5030196;28;20218;-51
2022/03/25 11:25:35;;;;;;;40.10;25.93;;;14.80;73.50;;;;;;5030883;28;20206;-51
2022/03/25 11:28:12;;;;;;;40.33;26.13;;;14.80;73.20;;;;;;5030781;28;20233;-48
2022/03/25 11:30:40;;;;;;;41.80;24.97;;;14.80;73.00;;;;;;5030885;28;20244;-50
2022/03/25 11:33:10;;;;;;;41.17;25.57;;;15.00;73.40;;;;;;5031010;28;20202;-49
2022/03/25 11:35:41;;;;;;;40.30;24.57;;;15.00;74.50;;;;;;5030633;28;20207;-50
2022/03/25 11:38:22;;;;;;;40.67;25.23;;;15.00;74.40;;;;;;5030662;28;20230;-51
2022/03/25 11:40:52;;;;;;;40.70;25.60;;;14.90;71.80;;;;;;5030441;28;20612;-50
2022/03/25 11:43:22;;;;;;;39.30;23.73;;;14.90;73.90;;;;;;5030128;28;20691;-51
2022/03/25 11:46:05;;;;;;;36.90;25.60;;;14.90;73.10;;;;;;5030367;28;20256;-50
2022/03/25 11:48:43;;;;;;;38.50;24.23;;;14.90;72.90;;;;;;5030952;28;20730;-51
2022/03/25 11:51:35;;;;;;;40.17;25.03;;;15.00;73.30;;;;;;5030926;28;20268;-51
2022/03/25 11:54:37;;;;;;;42.15;25.65;;;15.10;71.00;;;;;;5030804;28;20217;-51
2022/03/25 11:57:06;;;;;;;39.17;23.00;;;15.10;72.70;;;;;;5030703;28;20279;-50
2022/03/25 11:59:48;;;;;;;34.40;23.40;;;15.20;74.70;;;;;;5038077;28;20284;-51
2022/03/25 12:02:29;;;;;;;35.33;23.30;;;15.10;73.20;;;;;;5050505;28;20202;-51
2022/03/25 12:04:59;;;;;;;36.50;23.20;;;15.10;72.90;;;;;;5049941;28;20642;-49
2022/03/25 12:07:29;;;;;;;36.40;22.63;;;15.20;73.50;;;;;;5045518;28;20284;-51
2022/03/25 12:09:58;;;;;;;34.70;22.73;;;15.30;73.50;;;;;;5048141;28;20666;-50
2022/03/25 12:12:55;;;;;;;39.63;23.00;;;15.30;74.60;;;;;;5050044;28;20213;-50
2022/03/25 12:15:42;;;;;;;37.43;21.83;;;15.30;75.90;;;;;;5050502;28;20235;-51
2022/03/25 12:18:46;;;;;;;31.73;21.52;;;15.40;75.00;;;;;;5050111;28;20222;-51
2022/03/25 12:21:46;;;;;;;35.08;23.05;;;15.30;73.40;;;;;;5052058;28;20213;-51
2022/03/25 12:24:19;;;;;;;39.22;23.42;;;15.30;74.30;;;;;;5054049;28;20639;-49
2022/03/25 12:26:56;;;;;;;36.28;23.33;;;15.40;73.10;;;;;;5054121;28;20271;-51
2022/03/25 12:29:29;;;;;;;36.35;23.17;;;15.40;73.60;;;;;;5054166;28;20259;-51
2022/03/25 12:32:06;;;;;;;35.33;22.63;;;15.30;72.30;;;;;;5053096;28;20741;-51
2022/03/25 12:34:43;;;;;;;37.17;22.77;;;15.30;73.00;;;;;;5053762;28;20638;-49
2022/03/25 12:37:14;;;;;;;37.50;23.20;;;15.20;73.40;;;;;;5049717;28;20251;-51
2022/03/25 12:39:43;;;;;;;33.43;21.23;;;15.30;73.30;;;;;;5037067;28;20260;-51
2022/03/25 12:42:13;;;;;;;35.00;21.93;;;15.30;73.30;;;;;;5032763;28;20555;-51
2022/03/25 12:44:41;;;;;;;32.07;20.87;;;15.40;75.10;;;;;;5033588;28;20222;-48
2022/03/25 12:47:15;;;;;;;38.83;22.43;;;15.50;72.90;;;;;;5048773;28;20212;-49
2022/03/25 12:49:43;;;;;;;35.97;21.70;;;15.50;72.30;;;;;;5045441;28;20213;-52
2022/03/25 12:52:11;;;;;;;34.78;21.83;;;15.40;70.60;;;;;;5034727;28;20206;-52
2022/03/25 12:54:39;;;;;;;32.88;22.30;;;15.30;71.50;;;;;;5032422;28;20242;-51